Nearby METAR Reports

 

KOXC - Oxford/Waterbury, Connecticut, USA
Distance from station: SE 8mi, 12km
Updated: Fri, 07-Oct-2022 10:51am EDT
Clear
Clear
 Wind from varies
Wind: varies 3 mph , 6 km/h
Temperature: 66°F , 19°C
Dew Point: 57°F , 14°C
Humidity: 73%
Barometer: 29.96 inHg , 1014.6 hPa
Clouds: Clear
Visibility: 10 miles , 16 km
2022/10/07 14:51 KOXC 071451Z VRB03KT 10SM CLR 19/14 A2996 RMK AO2 SLP158 T01890139 58001
KDXR - Danbury, Connecticut, USA
Distance from station: SW 19mi, 30km
Updated: Fri, 07-Oct-2022 10:53am EDT
Clear
Clear
 Wind from SW
Wind: SW 8 mph , 13 km/h
Temperature: 70°F , 21°C
Dew Point: 55°F , 13°C
Humidity: 60%
Barometer: 29.96 inHg , 1014.6 hPa
Clouds: Clear
Visibility: 10 miles , 16 km
2022/10/07 14:53 KDXR 071453Z 23007KT 10SM CLR 21/13 A2996 RMK AO2 SLP144 T02060128 58002
 
KMMK - Meriden, Connecticut, USA
Distance from station: E 20mi, 33km
Updated: Fri, 07-Oct-2022 10:53am EDT
Clear
Clear
 Wind from calm
Wind: Calm
Temperature: 72°F , 22°C
Dew Point: 55°F , 13°C
Humidity: 57%
Barometer: 29.94 inHg , 1013.9 hPa
Clouds: Clear
Visibility: 10 miles , 16 km
2022/10/07 14:53 KMMK 071453Z AUTO 00000KT 10SM CLR 22/13 A2994 RMK AO2 SLP137 T02170133 58002
KBDR - Bridgeport, Connecticut, USA
Distance from station: S 27mi, 44km
Updated: Fri, 07-Oct-2022 10:52am EDT
Clear
Clear
 Wind from SW
Wind: SW 10 mph , 17 km/h
Temperature: 64°F , 18°C
Dew Point: 55°F , 13°C
Humidity: 73%
Barometer: 29.94 inHg , 1013.9 hPa
Clouds: Clear
Visibility: 10 miles , 16 km
2022/10/07 14:52 KBDR 071452Z 22009KT 10SM CLR 18/13 A2994 RMK AO2 SLP140 T01830133 58000
 
KHVN - New Haven/Tweed, Connecticut, USA
Distance from station: SE 27mi, 44km
Updated: Fri, 07-Oct-2022 10:53am EDT
Clear
Clear
 Wind from WSW
Wind: WSW 6 mph , 9 km/h
Temperature: 68°F , 20°C
Dew Point: 59°F , 15°C
Humidity: 73%
Barometer: 29.95 inHg , 1014.2 hPa
Clouds: Clear
Visibility: 10 miles , 16 km
2022/10/07 14:53 KHVN 071453Z 24005KT 10SM CLR 20/15 A2995 RMK AO2 SLP140 T02000150 50001
KHFD - Hartford/Brainar, Connecticut, USA
Distance from station: ENE 32mi, 52km
Updated: Fri, 07-Oct-2022 10:53am EDT
Few Clouds
Few Clouds
 Wind from calm
Wind: Calm
Temperature: 70°F , 21°C
Dew Point: 55°F , 13°C
Humidity: 60%
Barometer: 29.93 inHg , 1013.5 hPa
Clouds: Few Clouds
Visibility: 10 miles , 16 km
Cloud details: Few Clouds 10000 ft
2022/10/07 14:53 KHFD 071453Z 00000KT 10SM FEW100 21/13 A2993 RMK AO2 SLP135 T02110133 58002
 
KPOU - Poughkeepsie, New York, USA
Distance from station: W 35mi, 56km
Updated: Fri, 07-Oct-2022 10:53am EDT
Clear
Clear
 Wind from varies
Wind: varies 7 mph , 11 km/h
Temperature: 66°F , 19°C
Dew Point: 55°F , 13°C
Humidity: 68%
Barometer: 29.94 inHg , 1013.9 hPa
Clouds: Clear
Visibility: 10 miles , 16 km
2022/10/07 14:53 KPOU 071453Z VRB06KT 10SM CLR 19/13 A2994 RMK AO2 SLP137 T01940133 57002
KBDL - Windsor Locks, Connecticut, USA
Distance from station: NE 38mi, 62km
Updated: Fri, 07-Oct-2022 10:51am EDT
Few Clouds
Few Clouds
 Wind from calm
Wind: Calm
Temperature: 70°F , 21°C
Dew Point: 55°F , 13°C
Humidity: 60%
Barometer: 29.93 inHg , 1013.5 hPa
Clouds: Few Clouds
Visibility: 10 miles , 16 km
Cloud details: Few Clouds 15000 ft
2022/10/07 14:51 KBDL 071451Z 00000KT 10SM FEW150 21/13 A2993 RMK AO2 SLP136 T02060128 58001
 
KSNC - Chester, Connecticut, USA
Distance from station: ESE 39mi, 63km
Updated: Fri, 07-Oct-2022 11:15am EDT
Clear
Clear
 Wind from varies
Wind: varies 7 mph , 11 km/h
Temperature: 72°F , 22°C
Dew Point: 59°F , 15°C
Humidity: 65%
Barometer: 29.95 inHg , 1014.2 hPa
Clouds: Clear
Visibility: 10 miles , 16 km
2022/10/07 15:15 KSNC 071515Z AUTO VRB06KT 10SM CLR 22/15 A2995 RMK AO2
KHPN - White Plains, New York, USA
Distance from station: SW 42mi, 67km
Updated: Fri, 07-Oct-2022 10:56am EDT
Clear
Clear
 Wind from WNW
Wind: WNW 6 mph , 9 km/h
Temperature: 66°F , 19°C
Dew Point: 54°F , 12°C
Humidity: 64%
Barometer: 29.97 inHg , 1014.9 hPa
Clouds: Clear
Visibility: 10 miles , 16 km
2022/10/07 14:56 KHPN 071456Z 29005KT 10SM CLR 19/12 A2997
 
KSWF - Newburgh/Stewart, New York, USA
Distance from station: W 45mi, 72km
Updated: Fri, 07-Oct-2022 10:45am EDT
Clear
Clear
 Wind from WSW
Wind: WSW 9 mph , 15 km/h
Temperature: 66°F , 19°C
Dew Point: 55°F , 13°C
Humidity: 68%
Barometer: 29.96 inHg , 1014.6 hPa
Clouds: Clear
Visibility: 10 miles , 16 km
2022/10/07 14:45 KSWF 071445Z 25008KT 10SM SKC 19/13 A2996
KBAF - Westfield, Massachusetts, USA
Distance from station: NNE 50mi, 80km
Updated: Fri, 07-Oct-2022 10:53am EDT
Clear
Clear
 Wind from varies
Wind: varies 3 mph , 6 km/h
Temperature: 66°F , 19°C
Dew Point: 55°F , 13°C
Humidity: 68%
Barometer: 29.93 inHg , 1013.5 hPa
Clouds: Clear
Visibility: 10 miles , 16 km
2022/10/07 14:53 KBAF 071453Z VRB03KT 10SM CLR 19/13 A2993 RMK AO2 SLP135 T01890133 58003